Punkin Center, Colorado
Current Conditions -  °F | °C
As of 11:53 PM on Friday 28 Nov 2014 (Local Time) from KLHX Reporting Station
Clear Clear  
Wind Chill: 43°   Ceiling: Unl
Heat Index: 49°   Visibility: 10mi
Dew Point: 18°   Wind: 17mph
Humidity: 29%   Direction: 260°W
Pressure: 29.77"   Gusts: NA
Location:  38.363°N, 103.799°W
Report Text: KLHX 290653Z AUTO 26015KT 10SM CLR 09/M08 A2977 RMK AO2 SLP036 T00941078 402440022
Loading
Personal Weather Stations






























Interactive Weather Map New forecast layout! Learn more

10-Day Weather Forecast

Advertisements
Track Severe Weather on mobile